Time;durP1;ratioP1;P1;durP2;ratioP2;P2;SDS_P1;SDS_P2;PMS_P1;PMS_P2;Temp;Humidity;BMP_temperature;BMP_pressure;BME280_temperature;BME280_humidity;BME280_pressure;Samples;Min_cycle;Max_cycle;Signal;HPM_P1;HPM_P2
2022/04/09 00:00:32;;;;;;;5.57;1.50;;;5.70;99.90;;;;;;4979447;28;20054;-79
2022/04/09 00:02:59;;;;;;;7.20;1.58;;;5.70;99.90;;;;;;4979949;28;20052;-79
2022/04/09 00:05:25;;;;;;;12.35;1.95;;;5.70;99.90;;;;;;4994805;28;20057;-79
2022/04/09 00:07:51;;;;;;;7.25;1.63;;;5.70;99.90;;;;;;4986876;28;20069;-79
2022/04/09 00:10:17;;;;;;;7.03;1.80;;;5.80;99.90;;;;;;4963988;28;20053;-79
2022/04/09 00:12:47;;;;;;;10.00;1.80;;;5.90;99.90;;;;;;4994815;28;20050;-79
2022/04/09 00:15:14;;;;;;;6.47;1.58;;;5.80;99.90;;;;;;4980198;28;20077;-79
2022/04/09 00:17:42;;;;;;;5.97;1.50;;;5.80;99.90;;;;;;4994477;28;20050;-79
2022/04/09 00:20:09;;;;;;;8.80;1.83;;;5.80;99.90;;;;;;4980955;28;20125;-79
2022/04/09 00:22:38;;;;;;;7.30;1.58;;;5.80;99.90;;;;;;4995633;28;20121;-78
2022/04/09 00:25:11;;;;;;;3.53;1.30;;;5.80;99.90;;;;;;4996575;28;20042;-79
2022/04/09 00:27:38;;;;;;;5.53;1.40;;;5.70;99.90;;;;;;4987679;28;20060;-78
2022/04/09 00:30:06;;;;;;;4.40;1.10;;;5.60;99.90;;;;;;4978602;28;20078;-79
2022/04/09 00:32:32;;;;;;;6.47;1.30;;;5.60;99.90;;;;;;4995734;28;20042;-79
2022/04/09 00:34:58;;;;;;;7.22;1.40;;;5.50;99.90;;;;;;4979839;28;20056;-79
2022/04/09 00:37:24;;;;;;;5.07;1.58;;;5.80;99.90;;;;;;4995895;28;20061;-79
2022/04/09 00:39:49;;;;;;;8.82;1.45;;;5.60;99.90;;;;;;4978268;28;20515;-79
2022/04/09 00:42:17;;;;;;;5.32;1.60;;;6.80;99.90;;;;;;4978336;28;20070;-78
2022/04/09 00:44:43;;;;;;;8.60;1.67;;;5.60;99.90;;;;;;4994705;28;20061;-79
2022/04/09 00:47:09;;;;;;;7.20;1.35;;;5.60;99.90;;;;;;4978710;28;20050;-79
2022/04/09 00:49:39;;;;;;;4.35;1.42;;;5.80;99.90;;;;;;4978756;28;20049;-79
2022/04/09 00:52:07;;;;;;;6.10;1.15;;;5.70;99.90;;;;;;4996890;28;20050;-79
2022/04/09 00:54:36;;;;;;;6.93;1.50;;;5.70;99.90;;;;;;4978387;28;20446;-79
2022/04/09 00:57:06;;;;;;;7.47;1.67;;;5.60;99.90;;;;;;4993969;28;20046;-79
2022/04/09 00:59:38;;;;;;;4.90;1.40;;;5.90;99.90;;;;;;4983485;28;20050;-81
2022/04/09 01:02:05;;;;;;;7.25;1.95;;;5.60;99.90;;;;;;4978437;28;20046;-81
2022/04/09 01:04:31;;;;;;;4.80;1.42;;;5.60;99.90;;;;;;4978575;28;20054;-80
2022/04/09 01:06:59;;;;;;;9.25;1.85;;;5.60;99.90;;;;;;4977449;28;20034;-81
2022/04/09 01:09:25;;;;;;;7.32;1.63;;;6.40;99.90;;;;;;4963960;28;20053;-80
2022/04/09 01:11:51;;;;;;;7.13;1.73;;;5.60;99.90;;;;;;4977947;28;20510;-80
2022/04/09 01:14:18;;;;;;;4.63;1.15;;;5.60;99.90;;;;;;4977851;28;20054;-81
2022/04/09 01:16:44;;;;;;;6.28;1.30;;;5.60;99.90;;;;;;4963189;28;20054;-80
2022/04/09 01:19:10;;;;;;;6.20;1.20;;;6.60;99.90;;;;;;4993408;28;20103;-81
2022/04/09 01:21:38;;;;;;;6.28;1.40;;;5.60;99.90;;;;;;4981105;28;20046;-80
2022/04/09 01:24:05;;;;;;;7.75;1.63;;;6.70;99.90;;;;;;4975034;28;20743;-81
2022/04/09 01:26:31;;;;;;;6.85;1.40;;;5.50;99.90;;;;;;4977864;28;20050;-81
2022/04/09 01:28:58;;;;;;;5.60;1.40;;;5.50;99.90;;;;;;4979004;28;20105;-81
2022/04/09 01:31:23;;;;;;;4.50;1.40;;;5.50;99.90;;;;;;4980607;28;20078;-80
2022/04/09 01:33:49;;;;;;;6.93;1.48;;;5.60;99.90;;;;;;4961114;28;20181;-81
2022/04/09 01:36:15;;;;;;;5.97;1.38;;;6.00;99.90;;;;;;4962687;28;20069;-81
2022/04/09 01:38:41;;;;;;;7.38;1.40;;;5.50;99.90;;;;;;4977996;28;20058;-81
2022/04/09 01:41:07;;;;;;;9.50;1.42;;;5.50;99.90;;;;;;4962684;28;20404;-81
2022/04/09 01:43:33;;;;;;;9.63;1.50;;;5.50;99.90;;;;;;4977884;28;20049;-81
2022/04/09 01:45:58;;;;;;;7.10;1.25;;;5.60;99.90;;;;;;5011070;28;20148;-81
2022/04/09 01:48:24;;;;;;;10.75;1.95;;;5.60;99.90;;;;;;4978344;28;20658;-81
2022/04/09 01:50:50;;;;;;;4.20;1.65;;;5.80;99.90;;;;;;4959500;28;20043;-81
2022/04/09 01:53:16;;;;;;;3.28;1.17;;;5.60;99.90;;;;;;4994073;28;20479;-81
2022/04/09 01:55:43;;;;;;;2.60;0.80;;;5.40;99.90;;;;;;4978294;28;20054;-81
2022/04/09 01:58:09;;;;;;;2.05;0.80;;;5.40;99.90;;;;;;4978032;28;20047;-81
2022/04/09 02:00:35;;;;;;;3.10;1.02;;;6.50;99.90;;;;;;4978905;28;20044;-81
2022/04/09 02:03:01;;;;;;;6.32;1.20;;;5.20;99.90;;;;;;4977529;28;20042;-81
2022/04/09 02:05:27;;;;;;;7.13;1.30;;;5.20;99.90;;;;;;4980104;28;20046;-81
2022/04/09 02:07:52;;;;;;;5.40;1.65;;;5.10;99.90;;;;;;4977936;28;20101;-80
2022/04/09 02:10:19;;;;;;;9.10;1.55;;;5.20;99.90;;;;;;4977387;28;20050;-81
2022/04/09 02:12:46;;;;;;;9.27;1.70;;;5.70;99.90;;;;;;4978530;28;20117;-80
2022/04/09 02:15:14;;;;;;;8.10;1.48;;;5.30;99.90;;;;;;4962565;28;20045;-80
2022/04/09 02:17:42;;;;;;;4.55;1.23;;;6.40;99.90;;;;;;4986854;28;20133;-80
2022/04/09 02:20:10;;;;;;;7.97;1.70;;;5.40;99.90;;;;;;4977014;28;20919;-81
2022/04/09 02:22:41;;;;;;;6.38;1.30;;;5.40;99.90;;;;;;4981793;28;20082;-81
2022/04/09 02:25:14;;;;;;;4.68;1.50;;;5.50;99.90;;;;;;4982120;28;20042;-80
2022/04/09 02:27:40;;;;;;;3.70;1.58;;;5.40;99.90;;;;;;4979773;28;20099;-80
2022/04/09 02:30:09;;;;;;;6.50;1.60;;;5.40;99.90;;;;;;4981716;28;20462;-80
2022/04/09 02:32:45;;;;;;;8.50;1.92;;;5.30;99.90;;;;;;4989414;28;20126;-80
2022/04/09 02:35:12;;;;;;;14.65;1.83;;;5.30;99.90;;;;;;4998969;28;20057;-80
2022/04/09 02:37:39;;;;;;;5.72;1.88;;;5.20;99.90;;;;;;4984306;28;20085;-81
2022/04/09 02:40:06;;;;;;;7.10;1.48;;;5.20;99.90;;;;;;4981210;28;20385;-80
2022/04/09 02:42:31;;;;;;;5.63;1.13;;;5.20;99.90;;;;;;4989611;28;20117;-80
2022/04/09 02:44:57;;;;;;;8.60;1.55;;;5.20;99.90;;;;;;4978270;28;20180;-81
2022/04/09 02:47:23;;;;;;;9.38;1.90;;;5.60;99.90;;;;;;4981327;28;20129;-80
2022/04/09 02:49:49;;;;;;;6.70;1.40;;;5.30;99.90;;;;;;4982277;28;20045;-80
2022/04/09 02:52:14;;;;;;;5.32;1.40;;;5.30;99.90;;;;;;4981788;28;20054;-80
2022/04/09 02:54:40;;;;;;;8.25;1.52;;;5.30;99.90;;;;;;4965043;28;20393;-80
2022/04/09 02:57:06;;;;;;;10.70;1.73;;;5.30;99.90;;;;;;4978496;28;20034;-80
2022/04/09 02:59:32;;;;;;;7.63;1.73;;;5.40;99.90;;;;;;4980964;28;20054;-81
2022/04/09 03:01:58;;;;;;;7.95;1.90;;;5.80;99.90;;;;;;4980899;28;20044;-81
2022/04/09 03:04:24;;;;;;;6.22;1.73;;;5.50;99.90;;;;;;4982563;28;20133;-81
2022/04/09 03:06:49;;;;;;;5.43;1.55;;;5.50;99.90;;;;;;4984542;28;20132;-80
2022/04/09 03:09:15;;;;;;;9.13;1.70;;;5.50;99.90;;;;;;4964839;28;20137;-80
2022/04/09 03:11:41;;;;;;;11.60;1.80;;;5.60;99.90;;;;;;4989280;28;20041;-80
2022/04/09 03:14:06;;;;;;;7.18;1.60;;;5.50;99.90;;;;;;4963745;28;20750;-80
2022/04/09 03:16:32;;;;;;;6.55;1.80;;;5.50;99.90;;;;;;4982290;28;20052;-80
2022/04/09 03:18:58;;;;;;;9.52;1.70;;;5.50;99.90;;;;;;4978507;28;20042;-80
2022/04/09 03:21:24;;;;;;;8.32;1.77;;;5.50;99.90;;;;;;4981329;28;20101;-80
2022/04/09 03:23:49;;;;;;;5.95;1.50;;;5.50;99.90;;;;;;4980316;28;20042;-79
2022/04/09 03:26:15;;;;;;;6.72;1.30;;;5.50;99.90;;;;;;4980734;28;20132;-79
2022/04/09 03:28:41;;;;;;;7.18;1.52;;;5.50;99.90;;;;;;4995094;28;20046;-79
2022/04/09 03:31:09;;;;;;;6.97;1.92;;;5.40;99.90;;;;;;4978494;28;20840;-78
2022/04/09 03:33:35;;;;;;;6.80;1.35;;;5.40;99.90;;;;;;4981824;28;20042;-78
2022/04/09 03:36:01;;;;;;;6.57;1.67;;;5.50;99.90;;;;;;4982472;28;20065;-79
2022/04/09 03:38:26;;;;;;;9.13;1.35;;;5.50;99.90;;;;;;4980312;28;20058;-79
2022/04/09 03:40:52;;;;;;;9.95;1.70;;;5.80;99.90;;;;;;4986599;28;20509;-79
2022/04/09 03:43:18;;;;;;;8.35;1.38;;;5.40;99.90;;;;;;4980662;28;20204;-79
2022/04/09 03:45:44;;;;;;;4.05;1.20;;;5.40;99.90;;;;;;4981211;28;20049;-79
2022/04/09 03:48:09;;;;;;;5.00;1.30;;;5.30;99.90;;;;;;4979296;28;20058;-79
2022/04/09 03:50:36;;;;;;;4.47;1.35;;;5.80;99.90;;;;;;4965168;28;20049;-78
2022/04/09 03:53:03;;;;;;;3.20;1.20;;;5.20;99.90;;;;;;4995320;28;20132;-79
2022/04/09 03:55:29;;;;;;;4.68;1.25;;;5.30;99.90;;;;;;4980182;28;20061;-79
2022/04/09 03:57:58;;;;;;;2.75;0.80;;;5.20;99.90;;;;;;4996274;28;21033;-78
2022/04/09 04:00:24;;;;;;;4.40;1.20;;;5.10;99.90;;;;;;4988779;28;20049;-79
2022/04/09 04:02:51;;;;;;;4.90;1.05;;;5.50;99.90;;;;;;4979431;28;20491;-79
2022/04/09 04:05:17;;;;;;;6.63;1.33;;;5.60;99.90;;;;;;4995744;28;20060;-79
2022/04/09 04:07:44;;;;;;;9.38;2.10;;;5.10;99.90;;;;;;4981447;28;20605;-81
2022/04/09 04:10:10;;;;;;;6.40;2.00;;;5.50;99.90;;;;;;4965478;28;20147;-80
2022/04/09 04:12:43;;;;;;;7.53;1.67;;;5.20;99.90;;;;;;4995802;28;20117;-81
2022/04/09 04:15:10;;;;;;;8.93;1.70;;;5.30;99.90;;;;;;4981533;28;20042;-79
2022/04/09 04:17:43;;;;;;;9.35;2.30;;;5.30;99.90;;;;;;4995661;28;20097;-79
2022/04/09 04:20:10;;;;;;;9.70;1.60;;;5.30;99.90;;;;;;4995601;28;20049;-79
2022/04/09 04:22:37;;;;;;;9.43;2.22;;;6.30;99.90;;;;;;4980354;28;20034;-79
2022/04/09 04:25:04;;;;;;;8.27;2.17;;;5.80;99.90;;;;;;4982467;28;20487;-79
2022/04/09 04:27:30;;;;;;;7.38;1.70;;;5.40;99.90;;;;;;4988835;28;20054;-78
2022/04/09 04:30:04;;;;;;;4.97;1.77;;;6.20;99.90;;;;;;4978773;28;20733;-79
2022/04/09 04:32:29;;;;;;;10.10;2.35;;;5.50;99.90;;;;;;4985768;28;20108;-82
2022/04/09 04:34:55;;;;;;;7.88;1.90;;;5.50;99.90;;;;;;4965549;28;20082;-80
2022/04/09 04:37:21;;;;;;;6.25;1.63;;;5.50;99.90;;;;;;4996017;28;20181;-79
2022/04/09 04:39:47;;;;;;;5.38;1.35;;;5.50;99.90;;;;;;4996903;28;20128;-78
2022/04/09 04:42:13;;;;;;;6.05;1.45;;;5.50;99.90;;;;;;4980723;28;20404;-78
2022/04/09 04:44:38;;;;;;;8.85;1.50;;;6.30;99.90;;;;;;4979782;28;20093;-79
2022/04/09 04:47:04;;;;;;;6.50;1.55;;;6.50;99.90;;;;;;4979733;28;20045;-79
2022/04/09 04:49:30;;;;;;;12.35;1.77;;;5.50;99.90;;;;;;4979505;28;20126;-79
2022/04/09 04:51:56;;;;;;;8.90;1.50;;;5.60;99.90;;;;;;4979857;28;20125;-80
2022/04/09 04:54:22;;;;;;;6.20;1.60;;;5.60;99.90;;;;;;4964867;28;20057;-81
2022/04/09 04:56:47;;;;;;;4.97;1.27;;;5.80;99.90;;;;;;4966196;28;20077;-82
2022/04/09 04:59:15;;;;;;;5.55;1.20;;;6.20;99.90;;;;;;4993990;28;20053;-81
2022/04/09 05:01:41;;;;;;;5.18;1.30;;;5.50;99.90;;;;;;4977852;28;20895;-81
2022/04/09 05:04:07;;;;;;;9.13;1.38;;;5.50;99.90;;;;;;4993428;28;20053;-81
2022/04/09 05:06:33;;;;;;;5.57;1.40;;;5.70;99.90;;;;;;4997969;28;20041;-81
2022/04/09 05:08:58;;;;;;;5.75;1.40;;;7.00;99.90;;;;;;4978227;28;20053;-81
2022/04/09 05:11:24;;;;;;;6.82;1.30;;;5.80;99.90;;;;;;4979860;28;20186;-81
2022/04/09 05:13:50;;;;;;;5.18;1.60;;;5.50;99.90;;;;;;4979549;28;20042;-80
2022/04/09 05:16:23;;;;;;;7.28;1.60;;;5.50;99.90;;;;;;4979061;28;20096;-81
2022/04/09 05:18:49;;;;;;;8.15;1.80;;;5.70;99.90;;;;;;4966780;28;20475;-81
2022/04/09 05:21:15;;;;;;;11.05;1.80;;;5.80;99.90;;;;;;4978498;28;20041;-81
2022/04/09 05:23:41;;;;;;;10.10;1.85;;;5.60;99.90;;;;;;4979279;28;20128;-81
2022/04/09 05:26:07;;;;;;;5.45;1.90;;;5.60;99.90;;;;;;4979954;28;20208;-81
2022/04/09 05:28:32;;;;;;;12.65;2.20;;;5.60;99.90;;;;;;4996348;28;20054;-81
2022/04/09 05:30:58;;;;;;;7.78;1.60;;;7.00;99.90;;;;;;4995189;28;20488;-81
2022/04/09 05:33:24;;;;;;;12.50;1.70;;;5.60;99.90;;;;;;4962288;28;20056;-78
2022/04/09 05:35:49;;;;;;;6.45;2.15;;;5.60;99.90;;;;;;4964093;28;20057;-79
2022/04/09 05:38:15;;;;;;;5.28;1.40;;;5.70;99.90;;;;;;4976374;28;20169;-79
2022/04/09 05:40:42;;;;;;;10.75;1.75;;;5.70;99.90;;;;;;4966356;28;20061;-80
2022/04/09 05:43:07;;;;;;;7.78;1.85;;;5.80;99.90;;;;;;4978966;28;20046;-80
2022/04/09 05:45:33;;;;;;;10.93;1.75;;;5.80;99.90;;;;;;4994871;28;20042;-80
2022/04/09 05:47:59;;;;;;;7.93;1.67;;;5.80;99.90;;;;;;4978561;28;21906;-80
2022/04/09 05:50:25;;;;;;;10.50;2.13;;;5.70;99.90;;;;;;4977947;28;20058;-80
2022/04/09 05:52:51;;;;;;;12.02;1.83;;;6.10;99.90;;;;;;4994216;28;20108;-79
2022/04/09 05:55:17;;;;;;;6.72;1.70;;;5.70;99.90;;;;;;4970393;28;20050;-80
2022/04/09 05:57:43;;;;;;;12.20;2.20;;;6.30;99.90;;;;;;4981061;28;20050;-81
2022/04/09 06:00:10;;;;;;;7.72;1.80;;;5.70;99.90;;;;;;4997168;28;20100;-83
2022/04/09 06:02:39;;;;;;;13.18;2.08;;;5.70;99.90;;;;;;4983246;28;20480;-82
2022/04/09 06:05:06;;;;;;;10.63;2.42;;;6.20;99.90;;;;;;4996443;28;20507;-81
2022/04/09 06:07:32;;;;;;;9.50;2.00;;;5.80;99.90;;;;;;4992302;28;20050;-82
2022/04/09 06:09:58;;;;;;;11.95;2.45;;;5.90;99.90;;;;;;4981518;28;20061;-80
2022/04/09 06:12:24;;;;;;;8.40;1.75;;;5.90;99.90;;;;;;4998728;28;20219;-79
2022/04/09 06:14:50;;;;;;;6.95;1.60;;;5.80;99.90;;;;;;4997140;28;20093;-79
2022/04/09 06:17:16;;;;;;;7.70;1.60;;;5.80;99.90;;;;;;4981502;28;20158;-79
2022/04/09 06:19:42;;;;;;;6.55;1.88;;;5.70;99.90;;;;;;4965565;28;20046;-80
2022/04/09 06:22:08;;;;;;;5.03;1.67;;;5.60;99.90;;;;;;4980962;28;20039;-81
2022/04/09 06:24:34;;;;;;;6.85;1.30;;;5.60;99.90;;;;;;4980725;28;20042;-80
2022/04/09 06:27:00;;;;;;;4.47;1.30;;;5.80;99.90;;;;;;4973920;28;20180;-80
2022/04/09 06:29:25;;;;;;;6.63;1.52;;;5.50;99.90;;;;;;4979276;28;20057;-80
2022/04/09 06:31:51;;;;;;;5.63;1.30;;;5.50;99.90;;;;;;4981636;28;20042;-81
2022/04/09 06:34:18;;;;;;;5.82;1.65;;;6.80;99.90;;;;;;4979044;28;20050;-81
2022/04/09 06:36:44;;;;;;;8.30;1.73;;;5.50;99.90;;;;;;4996478;28;20132;-81
2022/04/09 06:39:10;;;;;;;5.65;1.38;;;5.60;99.90;;;;;;4994284;28;20129;-79
2022/04/09 06:41:36;;;;;;;4.93;1.42;;;6.70;99.90;;;;;;4981691;28;20049;-81
2022/04/09 06:44:03;;;;;;;5.20;1.27;;;6.00;99.90;;;;;;4981441;28;20051;-81
2022/04/09 06:46:29;;;;;;;7.82;2.13;;;5.70;99.90;;;;;;4996573;28;20480;-81
2022/04/09 06:48:55;;;;;;;4.88;1.50;;;5.80;99.90;;;;;;4982514;28;20050;-82
2022/04/09 06:51:22;;;;;;;7.10;1.20;;;5.90;99.90;;;;;;4983865;28;20503;-79
2022/04/09 06:53:48;;;;;;;7.93;1.35;;;6.00;99.90;;;;;;4998852;28;20113;-80
2022/04/09 06:56:14;;;;;;;4.00;1.23;;;6.10;99.90;;;;;;4982804;28;20502;-82
2022/04/09 06:58:40;;;;;;;6.85;1.70;;;6.10;99.90;;;;;;4997399;28;20097;-81
2022/04/09 07:01:06;;;;;;;5.93;1.52;;;6.20;99.90;;;;;;4997824;28;20038;-81
2022/04/09 07:03:31;;;;;;;6.63;1.67;;;6.40;99.90;;;;;;4980544;28;20062;-84
2022/04/09 07:05:57;;;;;;;7.85;1.60;;;6.50;99.90;;;;;;4978722;28;20152;-81
2022/04/09 07:08:24;;;;;;;4.45;1.23;;;6.50;99.90;;;;;;4964288;28;20050;-81
2022/04/09 07:10:52;;;;;;;3.72;1.45;;;6.60;99.90;;;;;;4973013;28;20095;-81
2022/04/09 07:13:18;;;;;;;4.45;0.93;;;7.20;99.90;;;;;;4965639;28;20060;-81
2022/04/09 07:15:43;;;;;;;5.25;1.50;;;6.80;99.90;;;;;;4979201;28;20042;-80
2022/04/09 07:18:09;;;;;;;2.42;1.02;;;7.00;99.90;;;;;;4981069;28;20046;-81
2022/04/09 07:20:36;;;;;;;3.45;1.10;;;7.10;99.90;;;;;;4997120;28;20194;-83
2022/04/09 07:23:02;;;;;;;4.03;0.93;;;7.00;99.90;;;;;;4966926;28;20527;-80
2022/04/09 07:25:31;;;;;;;3.95;0.90;;;7.00;99.90;;;;;;4998864;28;20065;-80
2022/04/09 07:27:58;;;;;;;3.25;1.10;;;6.80;99.90;;;;;;4998152;28;20050;-80
2022/04/09 07:30:27;;;;;;;4.95;1.02;;;6.70;99.90;;;;;;4966136;28;20046;-80
2022/04/09 07:32:56;;;;;;;3.05;0.88;;;6.60;99.90;;;;;;4983492;28;20053;-80
2022/04/09 07:35:22;;;;;;;2.88;1.30;;;6.60;99.90;;;;;;4998323;28;20129;-81
2022/04/09 07:37:50;;;;;;;4.80;1.23;;;6.70;99.90;;;;;;4973717;28;20157;-80
2022/04/09 07:40:18;;;;;;;5.85;1.00;;;6.80;99.90;;;;;;4981765;28;20069;-81
2022/04/09 07:42:44;;;;;;;2.92;0.80;;;6.90;99.90;;;;;;4997795;28;20136;-80
2022/04/09 07:45:11;;;;;;;5.20;1.20;;;7.10;99.90;;;;;;4998156;28;20047;-82
2022/04/09 07:47:37;;;;;;;4.03;0.80;;;7.20;99.90;;;;;;5014499;28;20042;-83
2022/04/09 07:50:06;;;;;;;5.95;1.27;;;7.30;99.90;;;;;;4965433;28;20124;-81
2022/04/09 07:52:32;;;;;;;6.38;1.23;;;7.40;99.90;;;;;;4981716;28;20049;-87
2022/04/09 07:55:00;;;;;;;5.63;1.63;;;7.50;99.90;;;;;;4992594;28;20127;-90
2022/04/09 07:57:29;;;;;;;8.98;1.67;;;7.70;99.90;;;;;;4974978;28;20050;-89
2022/04/09 07:59:57;;;;;;;4.78;1.27;;;8.00;99.90;;;;;;4983035;28;20084;-88
2022/04/09 08:02:24;;;;;;;6.55;1.60;;;8.20;99.90;;;;;;4962928;28;20073;-81
2022/04/09 08:04:49;;;;;;;7.35;1.70;;;8.40;99.90;;;;;;4997506;28;20047;-81
2022/04/09 08:07:15;;;;;;;5.28;1.40;;;8.50;99.90;;;;;;4980447;28;20137;-81
2022/04/09 08:09:43;;;;;;;7.85;1.77;;;8.70;99.90;;;;;;4977966;28;20522;-80
2022/04/09 08:12:11;;;;;;;6.07;1.50;;;8.90;99.90;;;;;;4979021;28;20046;-80
2022/04/09 08:14:37;;;;;;;7.20;1.52;;;9.00;99.90;;;;;;4981588;28;20053;-80
2022/04/09 08:17:03;;;;;;;6.97;1.65;;;9.10;99.90;;;;;;4965907;28;20073;-80
2022/04/09 08:19:29;;;;;;;7.05;1.55;;;9.10;99.90;;;;;;4980253;28;20052;-80
2022/04/09 08:21:57;;;;;;;8.35;1.60;;;9.20;99.90;;;;;;4980782;28;20081;-80
2022/04/09 08:24:23;;;;;;;8.18;1.90;;;9.30;99.90;;;;;;4980902;28;20077;-81
2022/04/09 08:26:48;;;;;;;7.55;1.80;;;9.40;99.90;;;;;;4980203;28;20085;-79
2022/04/09 08:29:19;;;;;;;9.20;1.60;;;9.50;99.90;;;;;;4979034;28;20777;-80
2022/04/09 08:31:47;;;;;;;7.30;1.75;;;9.50;99.90;;;;;;4981700;28;20544;-80
2022/04/09 08:34:14;;;;;;;5.47;1.73;;;9.70;99.90;;;;;;4982407;28;20116;-78
2022/04/09 08:36:40;;;;;;;5.55;1.65;;;9.80;99.90;;;;;;5005285;28;20050;-80
2022/04/09 08:39:05;;;;;;;6.55;1.77;;;9.90;99.90;;;;;;4976121;28;20061;-79
2022/04/09 08:41:31;;;;;;;8.48;1.85;;;10.20;99.90;;;;;;4965914;28;20050;-80
2022/04/09 08:43:57;;;;;;;6.95;1.70;;;10.20;99.90;;;;;;4966731;28;20050;-80
2022/04/09 08:46:26;;;;;;;7.00;1.90;;;10.10;99.90;;;;;;4980968;28;20045;-80
2022/04/09 08:48:52;;;;;;;8.82;2.10;;;10.30;99.90;;;;;;4997917;28;20053;-80
2022/04/09 08:51:18;;;;;;;7.00;1.67;;;10.50;99.90;;;;;;4981395;28;20053;-80
2022/04/09 08:53:45;;;;;;;6.10;1.70;;;10.60;99.90;;;;;;4982026;28;20120;-80
2022/04/09 08:56:12;;;;;;;7.85;1.60;;;10.70;99.90;;;;;;4981697;28;20053;-80
2022/04/09 08:58:38;;;;;;;5.55;2.08;;;10.80;99.90;;;;;;4980014;28;20081;-81
2022/04/09 09:01:04;;;;;;;5.78;1.60;;;11.00;99.90;;;;;;4966620;28;20175;-82
2022/04/09 09:03:29;;;;;;;8.38;1.73;;;11.20;99.90;;;;;;4976456;28;20112;-81
2022/04/09 09:05:55;;;;;;;8.77;1.75;;;11.10;99.90;;;;;;4980545;28;20769;-80
2022/04/09 09:08:50;;;;;;;6.70;1.70;;;11.10;99.90;;;;;;4980112;28;20518;-79
2022/04/09 09:11:16;;;;;;;7.78;2.20;;;11.20;99.90;;;;;;4979958;28;20567;-80
2022/04/09 09:13:50;;;;;;;7.40;1.90;;;11.30;99.90;;;;;;4980540;28;20140;-81
2022/04/09 09:16:25;;;;;;;7.57;2.17;;;11.10;99.90;;;;;;4997532;28;20107;-80
2022/04/09 09:18:52;;;;;;;7.50;1.60;;;10.70;99.90;;;;;;4981781;28;20080;-80
2022/04/09 09:21:23;;;;;;;7.68;2.13;;;10.40;99.90;;;;;;4995702;28;20054;-80
2022/04/09 09:23:52;;;;;;;13.20;2.63;;;10.00;99.90;;;;;;4981402;28;20077;-79
2022/04/09 09:26:24;;;;;;;15.30;2.05;;;9.40;99.90;;;;;;4994817;28;20042;-79
2022/04/09 09:28:57;;;;;;;13.45;2.20;;;8.70;99.90;;;;;;4982403;28;20132;-79
2022/04/09 09:31:40;;;;;;;13.98;2.10;;;8.10;99.90;;;;;;4985952;28;20043;-79
2022/04/09 09:34:19;;;;;;;10.77;2.10;;;7.80;99.90;;;;;;4986021;28;20048;-80
2022/04/09 09:36:45;;;;;;;6.38;1.50;;;7.70;99.90;;;;;;4986009;28;20492;-80
2022/04/09 09:39:15;;;;;;;3.88;1.25;;;7.60;99.90;;;;;;4985676;28;20069;-80
2022/04/09 09:41:51;;;;;;;5.47;1.73;;;7.60;99.90;;;;;;5006819;28;20054;-80
2022/04/09 09:44:19;;;;;;;5.63;1.50;;;7.50;99.90;;;;;;4992529;28;20057;-78
2022/04/09 09:46:53;;;;;;;6.05;1.70;;;7.40;99.90;;;;;;5003238;28;20069;-79
2022/04/09 09:49:21;;;;;;;7.40;1.90;;;7.30;99.90;;;;;;4986037;28;20089;-79
2022/04/09 09:52:11;;;;;;;6.97;1.73;;;7.20;99.90;;;;;;4986622;28;20049;-79
2022/04/09 09:55:06;;;;;;;5.93;1.65;;;7.40;99.90;;;;;;4999305;28;20046;-79
2022/04/09 09:57:33;;;;;;;6.32;1.83;;;7.60;99.90;;;;;;4999124;28;20065;-78
2022/04/09 10:00:05;;;;;;;7.45;1.50;;;7.70;99.90;;;;;;5000563;28;20080;-79
2022/04/09 10:02:34;;;;;;;10.15;1.77;;;7.70;99.90;;;;;;4999509;28;20129;-81
2022/04/09 10:04:59;;;;;;;6.80;1.38;;;7.60;99.90;;;;;;4984415;28;20046;-79
2022/04/09 10:07:27;;;;;;;5.68;1.40;;;7.70;99.90;;;;;;4984392;28;20506;-81
2022/04/09 10:09:53;;;;;;;7.10;1.23;;;7.60;99.90;;;;;;4982064;28;20061;-79
2022/04/09 10:12:23;;;;;;;5.43;1.48;;;7.50;99.90;;;;;;4981056;28;20048;-80
2022/04/09 10:14:57;;;;;;;3.58;1.05;;;7.40;99.90;;;;;;4982142;28;20082;-85
2022/04/09 10:17:24;;;;;;;5.63;1.60;;;7.80;99.90;;;;;;4990588;28;20050;-85
2022/04/09 10:19:57;;;;;;;5.88;1.58;;;8.30;99.90;;;;;;4989691;28;20042;-82
2022/04/09 10:22:39;;;;;;;4.68;1.17;;;8.80;99.90;;;;;;5000357;28;20053;-81
2022/04/09 10:25:06;;;;;;;4.68;1.40;;;9.20;99.90;;;;;;4983720;28;20096;-78
2022/04/09 10:27:49;;;;;;;3.13;1.17;;;9.50;99.90;;;;;;4983931;28;20054;-79
2022/04/09 10:30:24;;;;;;;5.43;1.08;;;9.80;99.90;;;;;;4988387;28;20062;-78
2022/04/09 10:33:00;;;;;;;3.47;0.88;;;9.80;99.90;;;;;;5000312;28;20129;-78
2022/04/09 10:35:40;;;;;;;3.30;1.07;;;9.60;99.90;;;;;;5000350;28;20499;-78
2022/04/09 10:38:14;;;;;;;6.07;1.75;;;9.60;99.90;;;;;;5000054;28;20423;-79
2022/04/09 10:40:43;;;;;;;3.40;1.17;;;9.80;99.90;;;;;;4998485;28;20054;-79
2022/04/09 10:43:30;;;;;;;3.55;1.00;;;10.20;99.90;;;;;;4983580;28;20170;-79
2022/04/09 10:46:02;;;;;;;4.68;1.40;;;10.60;99.90;;;;;;4990660;28;20054;-79
2022/04/09 10:48:44;;;;;;;5.30;1.60;;;11.00;99.90;;;;;;4981530;28;20049;-79
2022/04/09 10:51:11;;;;;;;5.40;1.42;;;11.30;99.90;;;;;;4952544;28;20046;-78
2022/04/09 10:53:40;;;;;;;5.38;1.17;;;11.60;99.90;;;;;;5006888;28;20121;-78
2022/04/09 10:56:25;;;;;;;6.75;1.30;;;11.70;99.90;;;;;;5008654;28;20046;-78
2022/04/09 10:59:00;;;;;;;6.38;1.30;;;11.70;99.90;;;;;;4999349;28;20057;-79
2022/04/09 11:01:48;;;;;;;3.35;1.10;;;11.30;99.90;;;;;;4982496;28;20538;-81
2022/04/09 11:04:34;;;;;;;5.40;1.02;;;10.60;99.90;;;;;;5000566;28;20172;-80
2022/04/09 11:07:06;;;;;;;3.30;1.00;;;9.90;99.90;;;;;;5000348;28;20054;-79
2022/04/09 11:09:59;;;;;;;5.68;1.40;;;9.50;99.90;;;;;;4996895;28;20050;-79
2022/04/09 11:12:30;;;;;;;5.07;1.10;;;8.90;99.90;;;;;;4981831;28;20329;-80
2022/04/09 11:15:01;;;;;;;4.53;0.90;;;8.40;99.90;;;;;;4980222;28;20050;-81
2022/04/09 11:17:37;;;;;;;5.18;1.10;;;9.00;99.90;;;;;;4982414;28;20116;-81
2022/04/09 11:20:02;;;;;;;3.28;0.80;;;7.90;99.90;;;;;;4983155;28;20551;-81
2022/04/09 11:22:40;;;;;;;4.43;0.80;;;8.20;99.90;;;;;;4982584;28;20050;-81
2022/04/09 11:25:08;;;;;;;6.22;1.00;;;8.60;99.90;;;;;;4983652;28;20058;-81
2022/04/09 11:27:34;;;;;;;2.75;0.88;;;9.20;99.90;;;;;;4997714;28;20041;-80
2022/04/09 11:30:01;;;;;;;3.13;0.70;;;9.60;99.90;;;;;;4983950;28;20168;-81
2022/04/09 11:32:28;;;;;;;1.85;0.77;;;9.90;99.90;;;;;;4967763;28;20050;-81
2022/04/09 11:34:57;;;;;;;1.88;0.90;;;10.40;99.90;;;;;;4998546;28;20046;-81
2022/04/09 11:37:26;;;;;;;5.85;0.80;;;10.70;99.90;;;;;;4983275;28;20057;-81
2022/04/09 11:39:52;;;;;;;3.28;0.70;;;10.90;99.90;;;;;;4996653;28;20054;-82
2022/04/09 11:42:18;;;;;;;4.20;0.90;;;11.30;99.90;;;;;;4982112;28;20054;-81
2022/04/09 11:44:44;;;;;;;2.72;0.95;;;11.60;99.90;;;;;;4965729;28;20054;-81
2022/04/09 11:47:13;;;;;;;4.20;0.90;;;11.70;99.90;;;;;;4985310;28;20466;-81
2022/04/09 11:49:41;;;;;;;3.30;1.02;;;12.10;99.90;;;;;;4996800;28;20046;-82
2022/04/09 11:52:07;;;;;;;2.28;1.00;;;12.40;99.90;;;;;;4982426;28;20042;-81
2022/04/09 11:54:34;;;;;;;4.38;1.08;;;12.60;99.90;;;;;;4981945;28;20050;-81
2022/04/09 11:57:01;;;;;;;4.75;0.90;;;12.60;99.90;;;;;;4984158;28;20058;-81
2022/04/09 11:59:29;;;;;;;4.63;1.23;;;12.40;99.90;;;;;;4980699;28;20499;-81
2022/04/09 12:01:55;;;;;;;4.05;1.10;;;12.50;99.90;;;;;;4983687;28;20039;-81
2022/04/09 12:04:22;;;;;;;4.82;1.20;;;12.70;99.90;;;;;;4972449;28;20053;-81
2022/04/09 12:06:49;;;;;;;5.90;1.30;;;12.70;99.90;;;;;;4995382;28;20101;-81
2022/04/09 12:09:15;;;;;;;3.88;1.10;;;12.30;99.90;;;;;;4995020;28;20053;-81
2022/04/09 12:11:42;;;;;;;4.75;1.17;;;11.70;99.90;;;;;;4981110;28;20052;-82
2022/04/09 12:14:17;;;;;;;2.80;1.00;;;10.90;99.90;;;;;;4998539;28;20080;-82
2022/04/09 12:16:43;;;;;;;4.63;1.10;;;10.50;99.90;;;;;;4980056;28;20551;-81
2022/04/09 12:19:09;;;;;;;2.15;0.80;;;10.10;99.90;;;;;;4997618;28;20049;-81
2022/04/09 12:21:36;;;;;;;4.35;1.00;;;9.80;99.90;;;;;;4982570;28;20041;-80
2022/04/09 12:24:05;;;;;;;3.28;1.13;;;9.50;99.90;;;;;;5005184;28;20056;-80
2022/04/09 12:26:35;;;;;;;4.80;1.30;;;9.30;99.90;;;;;;4995802;28;20046;-78
2022/04/09 12:29:16;;;;;;;5.32;1.70;;;9.10;99.90;;;;;;4997082;28;20125;-78
2022/04/09 12:31:44;;;;;;;5.50;1.23;;;8.90;99.90;;;;;;4994922;28;20053;-79
2022/04/09 12:34:10;;;;;;;5.25;1.08;;;8.40;99.90;;;;;;4979085;28;20046;-78
2022/04/09 12:36:38;;;;;;;2.25;0.85;;;8.00;99.90;;;;;;4971690;28;20042;-80
2022/04/09 12:39:26;;;;;;;3.08;0.90;;;7.70;99.90;;;;;;4997203;28;20051;-80
2022/04/09 12:41:55;;;;;;;2.28;0.70;;;7.20;99.90;;;;;;4987789;28;20619;-81
2022/04/09 12:44:29;;;;;;;2.42;0.85;;;7.00;99.90;;;;;;4982114;28;20084;-81
2022/04/09 12:46:56;;;;;;;2.75;0.80;;;7.00;99.90;;;;;;4996343;28;20659;-80
2022/04/09 12:49:30;;;;;;;2.72;0.90;;;7.60;99.90;;;;;;4981428;28;20042;-80
2022/04/09 12:51:56;;;;;;;2.05;0.90;;;8.10;99.90;;;;;;4980033;28;20046;-81
2022/04/09 12:54:22;;;;;;;1.92;0.80;;;8.60;99.90;;;;;;4982413;28;20077;-80
2022/04/09 12:56:48;;;;;;;2.63;0.80;;;8.20;99.90;;;;;;4967488;28;20054;-77
2022/04/09 12:59:14;;;;;;;4.75;1.10;;;9.20;99.90;;;;;;4966792;28;20077;-78